Terminal Aerodrome Forecast
Issued by NWS

Home | Current Version | Previous Version | Text Only | Print | Product List | Glossary On
Versions: 1 2 3 4 5 6 7 8 9 10 11 12 13 14 15 16
904
FTUS44 KLZK 290539
TAFPBF
TAF
KPBF 290539Z 2906/3006 02009G17KT P6SM SKC
     FM291600 35010G17KT P6SM SKC
     FM300000 32003KT P6SM SKC=

USA.gov is the U.S. government's official web portal to all federal, state and local government web resources and services.